Terminal Aerodrome Forecast
Issued by NWS Pendleton, OR

Home | Current Version | Previous Version | Text Only | Print | Product List | Glossary On
Versions: 1 2 3 4 5 6 7 8 9 10 11 12 13 14 15 16 17
017
FTUS46 KPDT 102339
TAFPDT
TAF
KPDT 102339Z 1100/1124 12005KT P6SM BKN080 BKN150
     FM110200 14005KT P6SM BKN050 OVC080
     FM111300 VRB04KT P6SM OVC100
     FM112100 36005KT P6SM BKN060 OVC090=

USA.gov is the U.S. government's official web portal to all federal, state and local government web resources and services.